Terminal Aerodrome Forecast
Issued by NWS

Home | Current Version | Previous Version | Text Only | Print | Product List | Glossary On
Versions: 1 2 3 4 5 6 7 8 9 10 11 12 13 14 15 16 17 18 19 20 21 22
000
FTUS44 KLZK 050800 AAA
TAFADF
TAF AMD
KADF 050806Z 0508/0606 VRB03KT 6SM BR BKN010 BKN050
      TEMPO 0508/0510 3SM BR BKN003
     FM051000 VRB03KT 5SM BR BKN015 BKN050
      TEMPO 0510/0513 1SM BR BKN002
     FM051500 21005KT P6SM FEW015 SCT050 BKN100
     FM051900 21006KT P6SM VCTS SCT035CB BKN100=

USA.gov is the U.S. government's official web portal to all federal, state and local government web resources and services.